Aviation Digital Data Service (ADDS)

Output produced by METARs form (2150 UTC 21 September 2018)
found at http://aviationweather.gov/metar/data/
 
KSTS 212053Z 18008KT 10SM CLR 31/05 A2993 RMK AO2 SLP127 T03110050 58010
KSTS 211729Z 2118/2218 VRB03KT P6SM SKC 
     FM212000 18009KT P6SM SKC 
     FM220400 15005KT P6SM SKC 
     FM220800 VRB02KT P6SM OVC004 
     FM221700 VRB03KT P6SM BKN007